sensor_id;sensor_type;location;lat;lon;timestamp;pressure;altitude;pressure_sealevel;temperature;humidity
81897;BME280;71360;43.506;1.500;2023-07-29T00:00:40;98628.34;;;26.90;54.43
81897;BME280;71360;43.506;1.500;2023-07-29T00:03:05;98610.19;;;26.89;53.75
81897;BME280;71360;43.506;1.500;2023-07-29T00:05:31;98619.25;;;26.90;53.81
81897;BME280;71360;43.506;1.500;2023-07-29T00:07:56;98622.00;;;26.90;54.45
81897;BME280;71360;43.506;1.500;2023-07-29T00:10:22;98627.47;;;26.90;53.80
81897;BME280;71360;43.506;1.500;2023-07-29T00:12:48;98616.72;;;26.88;54.38
81897;BME280;71360;43.506;1.500;2023-07-29T00:15:13;98603.00;;;26.88;53.97
81897;BME280;71360;43.506;1.500;2023-07-29T00:17:39;98605.75;;;26.88;53.91
81897;BME280;71360;43.506;1.500;2023-07-29T00:20:06;98605.75;;;26.88;54.08
81897;BME280;71360;43.506;1.500;2023-07-29T00:22:31;98603.88;;;26.89;54.45
81897;BME280;71360;43.506;1.500;2023-07-29T00:24:57;98603.00;;;26.88;54.03
81897;BME280;71360;43.506;1.500;2023-07-29T00:27:23;98598.56;;;26.87;53.95
81897;BME280;71360;43.506;1.500;2023-07-29T00:29:49;98597.53;;;26.88;53.83
81897;BME280;71360;43.506;1.500;2023-07-29T00:32:14;98594.97;;;26.87;54.44
81897;BME280;71360;43.506;1.500;2023-07-29T00:34:40;98591.19;;;26.88;54.22
81897;BME280;71360;43.506;1.500;2023-07-29T00:37:05;98597.53;;;26.88;53.83
81897;BME280;71360;43.506;1.500;2023-07-29T00:39:32;98592.03;;;26.88;54.37
81897;BME280;71360;43.506;1.500;2023-07-29T00:41:57;98581.28;;;26.87;54.53
81897;BME280;71360;43.506;1.500;2023-07-29T00:44:23;98586.75;;;26.87;53.94
81897;BME280;71360;43.506;1.500;2023-07-29T00:46:53;98592.25;;;26.87;53.85
81897;BME280;71360;43.506;1.500;2023-07-29T00:49:20;98585.91;;;26.86;54.44
81897;BME280;71360;43.506;1.500;2023-07-29T00:51:46;98582.31;;;26.86;54.48
81897;BME280;71360;43.506;1.500;2023-07-29T00:54:12;98584.00;;;26.87;53.94
81897;BME280;71360;43.506;1.500;2023-07-29T00:56:39;98587.78;;;26.86;53.94
81897;BME280;71360;43.506;1.500;2023-07-29T00:59:05;98576.81;;;26.86;54.38
81897;BME280;71360;43.506;1.500;2023-07-29T01:01:31;98582.31;;;26.86;53.66
81897;BME280;71360;43.506;1.500;2023-07-29T01:03:57;98576.81;;;26.86;53.96
81897;BME280;71360;43.506;1.500;2023-07-29T01:06:41;98577.50;;;26.88;53.77
81897;BME280;71360;43.506;1.500;2023-07-29T01:09:31;98584.00;;;26.87;54.43
81897;BME280;71360;43.506;1.500;2023-07-29T01:12:12;98582.31;;;26.86;53.97
81897;BME280;71360;43.506;1.500;2023-07-29T01:17:13;98579.78;;;26.84;54.09
81897;BME280;71360;43.506;1.500;2023-07-29T01:20:01;98577.69;;;26.86;54.61
81897;BME280;71360;43.506;1.500;2023-07-29T01:22:32;98574.50;;;26.83;54.43
81897;BME280;71360;43.506;1.500;2023-07-29T01:24:59;98572.59;;;26.83;54.51
81897;BME280;71360;43.506;1.500;2023-07-29T01:27:25;98573.44;;;26.84;54.18
81897;BME280;71360;43.506;1.500;2023-07-29T01:29:51;98567.97;;;26.84;54.04
81897;BME280;71360;43.506;1.500;2023-07-29T01:32:43;98574.28;;;26.84;54.40
81897;BME280;71360;43.506;1.500;2023-07-29T01:38:03;98577.22;;;26.83;53.98
81897;BME280;71360;43.506;1.500;2023-07-29T01:40:30;98578.28;;;26.82;54.23
81897;BME280;71360;43.506;1.500;2023-07-29T01:42:56;98575.53;;;26.82;54.33
81897;BME280;71360;43.506;1.500;2023-07-29T01:45:25;98577.22;;;26.83;54.66
81897;BME280;71360;43.506;1.500;2023-07-29T01:47:51;98573.66;;;26.82;53.83
81897;BME280;71360;43.506;1.500;2023-07-29T01:50:17;98575.53;;;26.82;53.83
81897;BME280;71360;43.506;1.500;2023-07-29T01:52:42;98571.75;;;26.83;54.41
81897;BME280;71360;43.506;1.500;2023-07-29T01:55:08;98576.41;;;26.82;54.27
81897;BME280;71360;43.506;1.500;2023-07-29T01:57:33;98577.22;;;26.83;54.29
81897;BME280;71360;43.506;1.500;2023-07-29T01:59:59;98570.06;;;26.82;54.17
81897;BME280;71360;43.506;1.500;2023-07-29T02:02:24;98573.66;;;26.82;54.58
81897;BME280;71360;43.506;1.500;2023-07-29T02:04:50;98570.06;;;26.82;54.64
81897;BME280;71360;43.506;1.500;2023-07-29T02:07:18;98564.56;;;26.82;54.05
81897;BME280;71360;43.506;1.500;2023-07-29T02:09:44;98553.59;;;26.82;54.41
81897;BME280;71360;43.506;1.500;2023-07-29T02:12:10;98550.88;;;26.82;53.99
81897;BME280;71360;43.506;1.500;2023-07-29T02:14:35;98553.59;;;26.82;53.88
81897;BME280;71360;43.506;1.500;2023-07-29T02:17:01;98553.59;;;26.82;53.95
81897;BME280;71360;43.506;1.500;2023-07-29T02:19:26;98550.88;;;26.82;54.70
81897;BME280;71360;43.506;1.500;2023-07-29T02:21:52;98548.13;;;26.82;54.33
81897;BME280;71360;43.506;1.500;2023-07-29T02:24:17;98550.03;;;26.81;53.98
81897;BME280;71360;43.506;1.500;2023-07-29T02:26:42;98545.59;;;26.80;54.04
81897;BME280;71360;43.506;1.500;2023-07-29T02:29:08;98550.22;;;26.79;54.34
81897;BME280;71360;43.506;1.500;2023-07-29T02:31:33;98551.06;;;26.80;54.00
81897;BME280;71360;43.506;1.500;2023-07-29T02:34:00;98545.78;;;26.78;53.86
81897;BME280;71360;43.506;1.500;2023-07-29T02:36:25;98542.84;;;26.80;54.19
81897;BME280;71360;43.506;1.500;2023-07-29T02:38:51;98531.03;;;26.79;54.56
81897;BME280;71360;43.506;1.500;2023-07-29T02:41:16;98536.53;;;26.79;54.45
81897;BME280;71360;43.506;1.500;2023-07-29T02:43:48;98528.31;;;26.79;54.11
81897;BME280;71360;43.506;1.500;2023-07-29T02:46:14;98532.09;;;26.78;54.11
81897;BME280;71360;43.506;1.500;2023-07-29T02:48:39;98532.09;;;26.78;54.38
81897;BME280;71360;43.506;1.500;2023-07-29T02:51:04;98532.09;;;26.78;54.43
81897;BME280;71360;43.506;1.500;2023-07-29T02:53:30;98526.59;;;26.78;54.08
81897;BME280;71360;43.506;1.500;2023-07-29T02:55:55;98526.59;;;26.78;54.61
81897;BME280;71360;43.506;1.500;2023-07-29T02:58:21;98521.13;;;26.78;53.81
81897;BME280;71360;43.506;1.500;2023-07-29T03:00:46;98526.59;;;26.78;54.24
81897;BME280;71360;43.506;1.500;2023-07-29T03:03:13;98527.63;;;26.77;54.30
81897;BME280;71360;43.506;1.500;2023-07-29T03:05:39;98518.59;;;26.77;54.62
81897;BME280;71360;43.506;1.500;2023-07-29T03:08:05;98518.59;;;26.77;54.26
81897;BME280;71360;43.506;1.500;2023-07-29T03:10:30;98513.09;;;26.77;53.95
81897;BME280;71360;43.506;1.500;2023-07-29T03:12:56;98513.09;;;26.77;54.34
81897;BME280;71360;43.506;1.500;2023-07-29T03:15:25;98505.72;;;26.77;54.22
81897;BME280;71360;43.506;1.500;2023-07-29T03:17:52;98510.34;;;26.77;54.12
81897;BME280;71360;43.506;1.500;2023-07-29T03:20:18;98507.81;;;26.75;54.20
81897;BME280;71360;43.506;1.500;2023-07-29T03:22:44;98516.03;;;26.75;53.84
81897;BME280;71360;43.506;1.500;2023-07-29T03:25:10;98510.56;;;26.75;54.02
81897;BME280;71360;43.506;1.500;2023-07-29T03:27:35;98510.56;;;26.75;54.40
81897;BME280;71360;43.506;1.500;2023-07-29T03:30:05;98510.56;;;26.75;54.08
81897;BME280;71360;43.506;1.500;2023-07-29T03:32:31;98513.31;;;26.75;54.33
81897;BME280;71360;43.506;1.500;2023-07-29T03:34:56;98503.38;;;26.74;53.99
81897;BME280;71360;43.506;1.500;2023-07-29T03:37:22;98508.84;;;26.74;54.05
81897;BME280;71360;43.506;1.500;2023-07-29T03:39:47;98508.84;;;26.74;54.67
81897;BME280;71360;43.506;1.500;2023-07-29T03:42:13;98511.59;;;26.74;53.93
81897;BME280;71360;43.506;1.500;2023-07-29T03:44:38;98511.59;;;26.74;54.76
81897;BME280;71360;43.506;1.500;2023-07-29T03:47:07;98512.63;;;26.73;54.43
81897;BME280;71360;43.506;1.500;2023-07-29T03:49:33;98525.31;;;26.74;54.01
81897;BME280;71360;43.506;1.500;2023-07-29T03:51:58;98520.88;;;26.73;54.63
81897;BME280;71360;43.506;1.500;2023-07-29T03:54:24;98518.13;;;26.73;54.39
81897;BME280;71360;43.506;1.500;2023-07-29T03:56:49;98511.81;;;26.73;54.66
81897;BME280;71360;43.506;1.500;2023-07-29T03:59:15;98511.81;;;26.73;54.53
81897;BME280;71360;43.506;1.500;2023-07-29T04:01:40;98520.03;;;26.73;54.21
81897;BME280;71360;43.506;1.500;2023-07-29T04:04:05;98514.56;;;26.73;54.22
81897;BME280;71360;43.506;1.500;2023-07-29T04:06:31;98509.06;;;26.73;53.85
81897;BME280;71360;43.506;1.500;2023-07-29T04:08:57;98512.63;;;26.73;54.38
81897;BME280;71360;43.506;1.500;2023-07-29T04:11:23;98511.81;;;26.73;54.69
81897;BME280;71360;43.506;1.500;2023-07-29T04:13:49;98507.16;;;26.73;53.92
81897;BME280;71360;43.506;1.500;2023-07-29T04:16:14;98510.97;;;26.72;54.04
81897;BME280;71360;43.506;1.500;2023-07-29T04:18:40;98521.94;;;26.72;54.58
81897;BME280;71360;43.506;1.500;2023-07-29T04:21:05;98522.97;;;26.71;54.74
81897;BME280;71360;43.506;1.500;2023-07-29T04:23:30;98522.97;;;26.71;54.33
81897;BME280;71360;43.506;1.500;2023-07-29T04:25:56;98527.41;;;26.72;54.47
81897;BME280;71360;43.506;1.500;2023-07-29T04:28:21;98518.53;;;26.70;53.79
81897;BME280;71360;43.506;1.500;2023-07-29T04:30:47;98520.22;;;26.71;54.38
81897;BME280;71360;43.506;1.500;2023-07-29T04:33:12;98519.38;;;26.71;54.72
81897;BME280;71360;43.506;1.500;2023-07-29T04:35:38;98518.53;;;26.70;54.41
81897;BME280;71360;43.506;1.500;2023-07-29T04:38:03;98518.53;;;26.70;53.78
81897;BME280;71360;43.506;1.500;2023-07-29T04:40:28;98515.78;;;26.70;54.49
81897;BME280;71360;43.506;1.500;2023-07-29T04:42:54;98513.88;;;26.71;53.93
81897;BME280;71360;43.506;1.500;2023-07-29T04:45:19;98521.28;;;26.70;54.61
81897;BME280;71360;43.506;1.500;2023-07-29T04:47:45;98525.03;;;26.69;54.48
81897;BME280;71360;43.506;1.500;2023-07-29T04:50:10;98519.53;;;26.69;54.02
81897;BME280;71360;43.506;1.500;2023-07-29T04:52:36;98512.19;;;26.70;54.24
81897;BME280;71360;43.506;1.500;2023-07-29T04:55:01;98519.53;;;26.69;53.96
81897;BME280;71360;43.506;1.500;2023-07-29T04:57:27;98522.28;;;26.69;53.96
81897;BME280;71360;43.506;1.500;2023-07-29T04:59:52;98518.69;;;26.69;54.41
81897;BME280;71360;43.506;1.500;2023-07-29T05:02:18;98522.28;;;26.69;54.57
81897;BME280;71360;43.506;1.500;2023-07-29T05:04:43;98521.44;;;26.69;53.93
81897;BME280;71360;43.506;1.500;2023-07-29T05:07:09;98520.56;;;26.68;54.59
81897;BME280;71360;43.506;1.500;2023-07-29T05:09:34;98520.56;;;26.68;54.36
81897;BME280;71360;43.506;1.500;2023-07-29T05:12:00;98518.91;;;26.67;54.04
81897;BME280;71360;43.506;1.500;2023-07-29T05:14:25;98514.25;;;26.68;54.18
81897;BME280;71360;43.506;1.500;2023-07-29T05:16:51;98517.84;;;26.68;54.68
81897;BME280;71360;43.506;1.500;2023-07-29T05:19:16;98520.56;;;26.68;54.39
81897;BME280;71360;43.506;1.500;2023-07-29T05:21:42;98518.91;;;26.67;54.21
81897;BME280;71360;43.506;1.500;2023-07-29T05:24:07;98524.38;;;26.67;54.21
81897;BME280;71360;43.506;1.500;2023-07-29T05:26:33;98532.59;;;26.67;54.46
81897;BME280;71360;43.506;1.500;2023-07-29T05:28:58;98535.34;;;26.67;54.69
81897;BME280;71360;43.506;1.500;2023-07-29T05:31:24;98523.53;;;26.67;53.92
81897;BME280;71360;43.506;1.500;2023-07-29T05:33:49;98536.38;;;26.66;54.20
81897;BME280;71360;43.506;1.500;2023-07-29T05:36:15;98533.66;;;26.66;54.67
81897;BME280;71360;43.506;1.500;2023-07-29T05:38:41;98521.84;;;26.66;54.00
81897;BME280;71360;43.506;1.500;2023-07-29T05:41:06;98525.44;;;26.66;54.50
81897;BME280;71360;43.506;1.500;2023-07-29T05:43:32;98519.94;;;26.66;54.59
81897;BME280;71360;43.506;1.500;2023-07-29T05:45:57;98522.69;;;26.66;54.63
81897;BME280;71360;43.506;1.500;2023-07-29T05:48:22;98519.09;;;26.66;53.90
81897;BME280;71360;43.506;1.500;2023-07-29T05:50:48;98525.44;;;26.66;53.99
81897;BME280;71360;43.506;1.500;2023-07-29T05:53:14;98526.47;;;26.65;54.03
81897;BME280;71360;43.506;1.500;2023-07-29T05:55:39;98527.31;;;26.66;53.98
81897;BME280;71360;43.506;1.500;2023-07-29T05:58:05;98519.94;;;26.66;54.13
81897;BME280;71360;43.506;1.500;2023-07-29T06:00:31;98520.16;;;26.65;54.21
81897;BME280;71360;43.506;1.500;2023-07-29T06:02:56;98519.94;;;26.66;54.25
81897;BME280;71360;43.506;1.500;2023-07-29T06:05:22;98526.47;;;26.65;54.03
81897;BME280;71360;43.506;1.500;2023-07-29T06:07:47;98520.16;;;26.65;54.44
81897;BME280;71360;43.506;1.500;2023-07-29T06:10:16;98519.28;;;26.64;54.63
81897;BME280;71360;43.506;1.500;2023-07-29T06:12:45;98522.03;;;26.64;54.48
81897;BME280;71360;43.506;1.500;2023-07-29T06:15:11;98536.59;;;26.65;54.08
81897;BME280;71360;43.506;1.500;2023-07-29T06:17:37;98542.91;;;26.65;54.18
81897;BME280;71360;43.506;1.500;2023-07-29T06:20:03;98537.44;;;26.65;54.15
81897;BME280;71360;43.506;1.500;2023-07-29T06:22:29;98539.34;;;26.65;54.17
81897;BME280;71360;43.506;1.500;2023-07-29T06:24:54;98537.44;;;26.65;54.50
81897;BME280;71360;43.506;1.500;2023-07-29T06:27:20;98541.88;;;26.66;54.29
81897;BME280;71360;43.506;1.500;2023-07-29T06:29:45;98540.16;;;26.65;54.64
81897;BME280;71360;43.506;1.500;2023-07-29T06:32:11;98543.78;;;26.66;54.07
81897;BME280;71360;43.506;1.500;2023-07-29T06:34:36;98542.91;;;26.65;54.67
81897;BME280;71360;43.506;1.500;2023-07-29T06:37:02;98545.66;;;26.65;54.69
81897;BME280;71360;43.506;1.500;2023-07-29T06:39:27;98537.44;;;26.65;54.74
81897;BME280;71360;43.506;1.500;2023-07-29T06:41:53;98537.44;;;26.65;54.18
81897;BME280;71360;43.506;1.500;2023-07-29T06:44:18;98542.91;;;26.65;54.45
81897;BME280;71360;43.506;1.500;2023-07-29T06:46:44;98543.78;;;26.66;54.37
81897;BME280;71360;43.506;1.500;2023-07-29T06:49:09;98546.69;;;26.64;54.74
81897;BME280;71360;43.506;1.500;2023-07-29T06:51:34;98546.69;;;26.64;54.49
81897;BME280;71360;43.506;1.500;2023-07-29T06:54:04;98545.66;;;26.65;54.77
81897;BME280;71360;43.506;1.500;2023-07-29T06:56:29;98553.88;;;26.65;54.07
81897;BME280;71360;43.506;1.500;2023-07-29T06:58:55;98549.44;;;26.64;54.22
81897;BME280;71360;43.506;1.500;2023-07-29T07:01:20;98561.25;;;26.65;54.52
81897;BME280;71360;43.506;1.500;2023-07-29T07:03:46;98557.66;;;26.64;54.58
81897;BME280;71360;43.506;1.500;2023-07-29T07:06:11;98561.25;;;26.65;54.86
81897;BME280;71360;43.506;1.500;2023-07-29T07:08:36;98559.34;;;26.65;54.34
81897;BME280;71360;43.506;1.500;2023-07-29T07:11:02;98563.13;;;26.64;54.42
81897;BME280;71360;43.506;1.500;2023-07-29T07:13:28;98560.38;;;26.64;55.15
81897;BME280;71360;43.506;1.500;2023-07-29T07:15:56;98564.00;;;26.65;55.26
81897;BME280;71360;43.506;1.500;2023-07-29T07:18:22;98563.13;;;26.64;54.74
81897;BME280;71360;43.506;1.500;2023-07-29T07:20:51;98562.09;;;26.65;54.79
81897;BME280;71360;43.506;1.500;2023-07-29T07:23:17;98569.28;;;26.66;54.51
81897;BME280;71360;43.506;1.500;2023-07-29T07:25:43;98565.69;;;26.66;54.90
81897;BME280;71360;43.506;1.500;2023-07-29T07:28:09;98565.69;;;26.66;54.86
81897;BME280;71360;43.506;1.500;2023-07-29T07:30:35;98558.50;;;26.65;54.67
81897;BME280;71360;43.506;1.500;2023-07-29T07:33:04;98564.84;;;26.65;55.13
81897;BME280;71360;43.506;1.500;2023-07-29T07:35:29;98560.38;;;26.64;54.98
81897;BME280;71360;43.506;1.500;2023-07-29T07:37:55;98568.44;;;26.66;55.17
81897;BME280;71360;43.506;1.500;2023-07-29T07:40:20;98567.56;;;26.65;54.85
81897;BME280;71360;43.506;1.500;2023-07-29T07:42:46;98562.09;;;26.65;54.56
81897;BME280;71360;43.506;1.500;2023-07-29T07:45:11;98564.00;;;26.65;54.64
81897;BME280;71360;43.506;1.500;2023-07-29T07:47:36;98571.19;;;26.66;54.61
81897;BME280;71360;43.506;1.500;2023-07-29T07:50:02;98575.78;;;26.65;54.81
81897;BME280;71360;43.506;1.500;2023-07-29T07:52:28;98573.91;;;26.66;55.04
81897;BME280;71360;43.506;1.500;2023-07-29T07:54:54;98581.28;;;26.65;54.56
81897;BME280;71360;43.506;1.500;2023-07-29T07:57:21;98580.22;;;26.66;54.68
81897;BME280;71360;43.506;1.500;2023-07-29T07:59:47;98585.72;;;26.66;54.83
81897;BME280;71360;43.506;1.500;2023-07-29T08:02:12;98583.81;;;26.67;54.83
81897;BME280;71360;43.506;1.500;2023-07-29T08:04:38;98577.50;;;26.66;54.48
81897;BME280;71360;43.506;1.500;2023-07-29T08:07:03;98576.66;;;26.66;54.68
81897;BME280;71360;43.506;1.500;2023-07-29T08:09:29;98573.72;;;26.67;54.53
81897;BME280;71360;43.506;1.500;2023-07-29T08:11:55;98576.47;;;26.67;54.96
81897;BME280;71360;43.506;1.500;2023-07-29T08:14:20;98577.50;;;26.66;54.79
81897;BME280;71360;43.506;1.500;2023-07-29T08:16:45;98581.94;;;26.67;55.27
81897;BME280;71360;43.506;1.500;2023-07-29T08:19:11;98575.59;;;26.67;55.29
81897;BME280;71360;43.506;1.500;2023-07-29T08:21:36;98574.75;;;26.66;55.08
81897;BME280;71360;43.506;1.500;2023-07-29T08:24:02;98591.19;;;26.66;54.55
81897;BME280;71360;43.506;1.500;2023-07-29T08:26:30;98588.47;;;26.66;54.99
81897;BME280;71360;43.506;1.500;2023-07-29T08:28:55;98584.69;;;26.67;54.61
81897;BME280;71360;43.506;1.500;2023-07-29T08:31:20;98587.41;;;26.67;55.24
81897;BME280;71360;43.506;1.500;2023-07-29T08:33:46;98584.69;;;26.67;54.98
81897;BME280;71360;43.506;1.500;2023-07-29T08:36:11;98587.41;;;26.67;55.28
81897;BME280;71360;43.506;1.500;2023-07-29T08:38:37;98578.31;;;26.67;54.51
81897;BME280;71360;43.506;1.500;2023-07-29T08:43:39;98573.72;;;26.67;54.80
81897;BME280;71360;43.506;1.500;2023-07-29T08:46:06;98572.84;;;26.67;54.86
81897;BME280;71360;43.506;1.500;2023-07-29T08:48:40;98569.91;;;26.68;54.98
81897;BME280;71360;43.506;1.500;2023-07-29T08:51:08;98567.38;;;26.67;54.70
81897;BME280;71360;43.506;1.500;2023-07-29T08:53:34;98570.09;;;26.67;54.62
81897;BME280;71360;43.506;1.500;2023-07-29T08:56:00;98573.72;;;26.67;54.82
81897;BME280;71360;43.506;1.500;2023-07-29T08:58:26;98569.06;;;26.68;54.64
81897;BME280;71360;43.506;1.500;2023-07-29T09:00:52;98570.97;;;26.67;55.26
81897;BME280;71360;43.506;1.500;2023-07-29T09:03:18;98576.25;;;26.69;55.10
81897;BME280;71360;43.506;1.500;2023-07-29T09:05:45;98578.13;;;26.68;55.15
81897;BME280;71360;43.506;1.500;2023-07-29T09:08:11;98569.06;;;26.68;54.50
81897;BME280;71360;43.506;1.500;2023-07-29T09:10:37;98575.38;;;26.68;54.67
81897;BME280;71360;43.506;1.500;2023-07-29T09:13:06;98571.59;;;26.69;54.75
81897;BME280;71360;43.506;1.500;2023-07-29T09:15:34;98575.38;;;26.68;54.73
81897;BME280;71360;43.506;1.500;2023-07-29T09:18:09;98560.66;;;26.69;55.27
81897;BME280;71360;43.506;1.500;2023-07-29T09:20:35;98558.94;;;26.68;55.36
81897;BME280;71360;43.506;1.500;2023-07-29T09:23:01;98575.38;;;26.68;54.96
81897;BME280;71360;43.506;1.500;2023-07-29T09:25:28;98570.59;;;26.70;55.72
81897;BME280;71360;43.506;1.500;2023-07-29T09:27:59;98568.69;;;26.71;55.94
81897;BME280;71360;43.506;1.500;2023-07-29T09:30:25;98575.03;;;26.71;55.74
81897;BME280;71360;43.506;1.500;2023-07-29T09:32:57;98564.91;;;26.72;55.44
81897;BME280;71360;43.506;1.500;2023-07-29T09:35:26;98567.66;;;26.72;55.92
81897;BME280;71360;43.506;1.500;2023-07-29T09:37:53;98569.56;;;26.71;55.49
81897;BME280;71360;43.506;1.500;2023-07-29T09:40:19;98568.53;;;26.72;55.53
81897;BME280;71360;43.506;1.500;2023-07-29T09:42:51;98557.56;;;26.72;56.30
81897;BME280;71360;43.506;1.500;2023-07-29T09:45:25;98556.69;;;26.72;56.20
81897;BME280;71360;43.506;1.500;2023-07-29T09:47:52;98568.53;;;26.72;55.73
81897;BME280;71360;43.506;1.500;2023-07-29T09:50:17;98567.47;;;26.73;55.62
81897;BME280;71360;43.506;1.500;2023-07-29T09:52:44;98566.63;;;26.73;56.31
81897;BME280;71360;43.506;1.500;2023-07-29T09:55:13;98570.19;;;26.73;55.87
81897;BME280;71360;43.506;1.500;2023-07-29T09:57:43;98570.19;;;26.73;56.05
81897;BME280;71360;43.506;1.500;2023-07-29T10:00:10;98570.19;;;26.73;55.51
81897;BME280;71360;43.506;1.500;2023-07-29T10:02:39;98578.41;;;26.73;55.80
81897;BME280;71360;43.506;1.500;2023-07-29T10:05:06;98579.28;;;26.74;56.01
81897;BME280;71360;43.506;1.500;2023-07-29T10:07:33;98580.13;;;26.74;55.91
81897;BME280;71360;43.506;1.500;2023-07-29T10:10:01;98579.28;;;26.74;55.63
81897;BME280;71360;43.506;1.500;2023-07-29T10:12:28;98586.44;;;26.75;56.00
81897;BME280;71360;43.506;1.500;2023-07-29T10:14:55;98580.97;;;26.75;56.09
81897;BME280;71360;43.506;1.500;2023-07-29T10:17:24;98584.56;;;26.75;55.51
81897;BME280;71360;43.506;1.500;2023-07-29T10:19:51;98579.09;;;26.75;55.97
81897;BME280;71360;43.506;1.500;2023-07-29T10:22:20;98585.41;;;26.76;55.98
81897;BME280;71360;43.506;1.500;2023-07-29T10:24:46;98584.38;;;26.77;55.83
81897;BME280;71360;43.506;1.500;2023-07-29T10:27:17;98592.78;;;26.75;56.24
81897;BME280;71360;43.506;1.500;2023-07-29T10:29:44;98590.88;;;26.76;56.29
81897;BME280;71360;43.506;1.500;2023-07-29T10:32:11;98590.69;;;26.77;55.97
81897;BME280;71360;43.506;1.500;2023-07-29T10:34:37;98590.03;;;26.75;56.29
81897;BME280;71360;43.506;1.500;2023-07-29T10:37:04;98590.69;;;26.77;55.44
81897;BME280;71360;43.506;1.500;2023-07-29T10:39:38;98588.59;;;26.79;55.34
81897;BME280;71360;43.506;1.500;2023-07-29T10:42:06;98582.47;;;26.77;55.68
81897;BME280;71360;43.506;1.500;2023-07-29T10:47:21;98570.47;;;26.78;55.98
81897;BME280;71360;43.506;1.500;2023-07-29T10:49:50;98567.91;;;26.77;55.67
81897;BME280;71360;43.506;1.500;2023-07-29T10:52:29;98571.13;;;26.81;55.49
81897;BME280;71360;43.506;1.500;2023-07-29T10:54:55;98570.47;;;26.78;56.25
81897;BME280;71360;43.506;1.500;2023-07-29T10:57:35;98570.06;;;26.82;55.86
81897;BME280;71360;43.506;1.500;2023-07-29T11:00:02;98576.78;;;26.79;55.89
81897;BME280;71360;43.506;1.500;2023-07-29T11:02:33;98573.88;;;26.81;56.27
81897;BME280;71360;43.506;1.500;2023-07-29T11:05:17;98570.25;;;26.80;55.92
81897;BME280;71360;43.506;1.500;2023-07-29T11:07:51;98573.88;;;26.81;56.12
81897;BME280;71360;43.506;1.500;2023-07-29T11:10:17;98565.63;;;26.81;56.00
81897;BME280;71360;43.506;1.500;2023-07-29T11:12:48;98569.22;;;26.81;55.55
81897;BME280;71360;43.506;1.500;2023-07-29T11:18:01;98569.69;;;26.85;55.37
81897;BME280;71360;43.506;1.500;2023-07-29T11:20:28;98565.44;;;26.82;56.16
81897;BME280;71360;43.506;1.500;2023-07-29T11:22:56;98567.31;;;26.82;55.93
81897;BME280;71360;43.506;1.500;2023-07-29T11:25:23;98565.22;;;26.84;55.85
81897;BME280;71360;43.506;1.500;2023-07-29T11:27:53;98567.97;;;26.84;56.02
81897;BME280;71360;43.506;1.500;2023-07-29T11:30:18;98570.72;;;26.84;55.61
81897;BME280;71360;43.506;1.500;2023-07-29T11:32:45;98569.69;;;26.85;55.66
81897;BME280;71360;43.506;1.500;2023-07-29T11:35:15;98560.59;;;26.84;55.58
81897;BME280;71360;43.506;1.500;2023-07-29T11:37:43;98566.94;;;26.85;55.79
81897;BME280;71360;43.506;1.500;2023-07-29T11:40:09;98557.63;;;26.86;56.28
81897;BME280;71360;43.506;1.500;2023-07-29T11:42:36;98554.91;;;26.86;56.07
81897;BME280;71360;43.506;1.500;2023-07-29T11:45:02;98556.59;;;26.87;55.88
81897;BME280;71360;43.506;1.500;2023-07-29T11:47:29;98556.59;;;26.87;55.58
81897;BME280;71360;43.506;1.500;2023-07-29T11:49:58;98550.06;;;26.88;55.91
81897;BME280;71360;43.506;1.500;2023-07-29T11:52:24;98543.72;;;26.87;55.50
81897;BME280;71360;43.506;1.500;2023-07-29T11:54:49;98540.81;;;26.89;56.25
81897;BME280;71360;43.506;1.500;2023-07-29T11:57:16;98549.03;;;26.89;56.23
81897;BME280;71360;43.506;1.500;2023-07-29T11:59:44;98547.97;;;26.90;56.25
81897;BME280;71360;43.506;1.500;2023-07-29T12:02:12;98545.22;;;26.90;55.42
81897;BME280;71360;43.506;1.500;2023-07-29T12:04:39;98549.88;;;26.89;55.53
81897;BME280;71360;43.506;1.500;2023-07-29T12:07:05;98548.84;;;26.90;55.84
81897;BME280;71360;43.506;1.500;2023-07-29T12:09:31;98553.28;;;26.91;56.09
81897;BME280;71360;43.506;1.500;2023-07-29T12:11:57;98551.38;;;26.92;56.19
81897;BME280;71360;43.506;1.500;2023-07-29T12:14:26;98548.63;;;26.92;55.84
81897;BME280;71360;43.506;1.500;2023-07-29T12:16:52;98545.88;;;26.92;56.02
81897;BME280;71360;43.506;1.500;2023-07-29T12:19:19;98543.16;;;26.92;56.15
81897;BME280;71360;43.506;1.500;2023-07-29T12:21:45;98551.16;;;26.93;56.04
81897;BME280;71360;43.506;1.500;2023-07-29T12:24:13;98541.03;;;26.94;55.97
81897;BME280;71360;43.506;1.500;2023-07-29T12:26:40;98536.41;;;26.94;55.65
81897;BME280;71360;43.506;1.500;2023-07-29T12:29:18;98538.97;;;26.96;55.93
81897;BME280;71360;43.506;1.500;2023-07-29T12:31:47;98541.03;;;26.94;56.00
81897;BME280;71360;43.506;1.500;2023-07-29T12:34:19;98541.69;;;26.96;56.27
81897;BME280;71360;43.506;1.500;2023-07-29T12:36:49;98537.06;;;26.96;56.38
81897;BME280;71360;43.506;1.500;2023-07-29T12:41:43;98534.31;;;26.96;56.16
81897;BME280;71360;43.506;1.500;2023-07-29T12:44:09;98533.28;;;26.98;55.70
81897;BME280;71360;43.506;1.500;2023-07-29T12:46:34;98520.41;;;26.98;56.37
81897;BME280;71360;43.506;1.500;2023-07-29T12:49:00;98514.91;;;26.98;56.22
81897;BME280;71360;43.506;1.500;2023-07-29T12:51:25;98520.41;;;26.98;55.95
81897;BME280;71360;43.506;1.500;2023-07-29T12:53:51;98522.09;;;26.99;55.95
81897;BME280;71360;43.506;1.500;2023-07-29T12:56:16;98523.78;;;27.00;56.63
81897;BME280;71360;43.506;1.500;2023-07-29T12:58:41;98513.66;;;27.01;56.42
81897;BME280;71360;43.506;1.500;2023-07-29T13:01:07;98519.16;;;27.01;56.16
81897;BME280;71360;43.506;1.500;2023-07-29T13:03:32;98514.53;;;27.01;56.59
81897;BME280;71360;43.506;1.500;2023-07-29T13:05:58;98517.06;;;27.03;56.30
81897;BME280;71360;43.506;1.500;2023-07-29T13:08:23;98516.19;;;27.02;56.62
81897;BME280;71360;43.506;1.500;2023-07-29T13:10:49;98510.53;;;27.04;56.98
81897;BME280;71360;43.506;1.500;2023-07-29T13:13:14;98516.84;;;27.04;56.53